Terminal Aerodrome Forecast
Issued by NWS Wakefield, VA

Home | Current Version | Previous Version | Text Only | Print | Product List | Glossary On
Versions: 1 2 3 4 5 6 7 8 9 10 11 12 13 14 15 16 17 18 19 20 21 22 23
260
FTUS41 KAKQ 182320
TAFECG
TAF
KECG 182320Z 1900/1924 05011KT P6SM SKC
     FM191000 VRB03KT P6SM BKN070
     FM191600 13006KT P6SM OVC020
     FM191700 16007KT P6SM -RA OVC015
     FM191900 17007KT 3SM -RA BR OVC008
     FM192200 VRB03KT 4SM BR BKN005=

USA.gov is the U.S. government's official web portal to all federal, state and local government web resources and services.